Home > Products > Valid Products > MTR

000
SAUS46 KPDT 032357
MTRMEH
METAR KMEH 032356Z AUTO 10005G16KT 10SM BKN100 23/00 A3002 RMK AO2
SLP158 T02280000 10256 20222 56017





000
SAUS46 KPDT 032256
MTRMEH
METAR KMEH 032256Z AUTO VRB04KT 10SM FEW002 FEW100 25/01 A3003 RMK
AO2 SLP159 T02500011





000
SAUS46 KPDT 032256
MTRMEH
METAR KMEH 032256Z AUTO VRB04KT 10SM FEW002 FEW100 25/01 A3003 RMK
AO2 SLP159 T02500011





000
SAUS46 KPDT 032240
MTRMEH
SPECI KMEH 032240Z AUTO 00000KT 3SM HZ FEW002 BKN100 24/02 A3004 RMK
AO2 T02390017





000
SAUS46 KPDT 032156
MTRMEH
METAR KMEH 032156Z AUTO 00000KT 10SM SCT100 23/01 A3006 RMK AO2
SLP168 T02330011





000
SAUS46 KPDT 032056
MTRMEH
METAR KMEH 032056Z AUTO VRB04KT 10SM CLR 24/01 A3008 RMK AO2 SLP173
T02440011 56010





000
SAUS46 KPDT 032056
MTRMEH
METAR KMEH 032056Z AUTO VRB04KT 10SM CLR 24/01 A3008 RMK AO2 SLP173
T02440011 56010





000
SAUS46 KPDT 031956
MTRMEH
METAR KMEH 031956Z AUTO 10SM CLR 24/01 A3008 RMK AO2 SLP174
T02440011





000
SAUS46 KPDT 031856
MTRMEH
METAR KMEH 031856Z AUTO VRB03KT 10SM CLR 24/02 A3010 RMK AO2 SLP179
T02390017





000
SAUS46 KPDT 031757
MTRMEH
METAR KMEH 031756Z AUTO VRB05KT 10SM CLR 22/02 A3011 RMK AO2 SLP184
T02220017 10228 20006 58001





000
SAUS46 KPDT 031757
MTRMEH
METAR KMEH 031756Z AUTO VRB05KT 10SM CLR 22/02 A3011 RMK AO2 SLP184
T02220017 10228 20006 58001





000
SAUS46 KPDT 031657
MTRMEH
METAR KMEH 031656Z AUTO 00000KT 10SM CLR 21/02 A3011 RMK AO2 SLP182
T02110017





000
SAUS46 KPDT 031657
MTRMEH
METAR KMEH 031656Z AUTO 00000KT 10SM CLR 21/02 A3011 RMK AO2 SLP182
T02110017





000
SAUS46 KPDT 031556
MTRMEH
METAR KMEH 031556Z AUTO VRB03KT 10SM CLR 18/01 A3012 RMK AO2 SLP184
T01780011





000
SAUS46 KPDT 031458
MTRMEH
METAR KMEH 031456Z AUTO 00000KT 10SM CLR 15/01 A3011 RMK AO2 SLP181
T01500011 51003





000
SAUS46 KPDT 031356
MTRMEH
METAR KMEH 031356Z AUTO 00000KT 10SM CLR 04/00 A3011 RMK AO2 SLP188
T00440000





000
SAUS46 KPDT 031257
MTRMEH
METAR KMEH 031256Z AUTO 00000KT 10SM CLR 01/M02 A3011 RMK AO2 SLP190
T00061017





000
SAUS46 KPDT 031257
MTRMEH
METAR KMEH 031256Z AUTO 00000KT 10SM CLR 01/M02 A3011 RMK AO2 SLP190
T00061017





000
SAUS46 KPDT 031156
MTRMEH
METAR KMEH 031156Z AUTO 00000KT 10SM CLR 01/M02 A3011 RMK AO2 SLP187
T00111017 10067 20011 53002





000
SAUS46 KPDT 031156
MTRMEH
METAR KMEH 031156Z AUTO 00000KT 10SM CLR 01/M02 A3011 RMK AO2 SLP187
T00111017 10067 20011 53002





000
SAUS46 KPDT 031058
MTRMEH
METAR KMEH 031056Z AUTO 00000KT 10SM CLR 02/M02 A3010 RMK AO2 SLP184
T00171017





000
SAUS46 KPDT 031058
MTRMEH
METAR KMEH 031056Z AUTO 00000KT 10SM CLR 02/M02 A3010 RMK AO2 SLP184
T00171017





000
SAUS46 KPDT 030956
MTRMEH
METAR KMEH 030956Z AUTO 00000KT 10SM CLR 02/M01 A3010 RMK AO2 SLP183
T00221011





000
SAUS46 KPDT 030858
MTRMEH
METAR KMEH 030856Z AUTO 00000KT 10SM CLR 03/M01 A3010 RMK AO2 SLP180
T00331006 50000





000
SAUS46 KPDT 030757
MTRMEH
METAR KMEH 030756Z AUTO 00000KT 10SM CLR 04/00 A3010 RMK AO2 SLP182
T00440000 402390000





000
SAUS46 KPDT 030656
MTRMEH
METAR KMEH 030656Z AUTO 00000KT 10SM CLR 06/00 A3010 RMK AO2 SLP180
T00560000





000
SAUS46 KPDT 030557
MTRMEH
METAR KMEH 030556Z AUTO 00000KT 10SM CLR 07/00 A3010 RMK AO2 SLP179
T00670000 10233 20067 50007





000
SAUS46 KPDT 030557
MTRMEH
METAR KMEH 030556Z AUTO 00000KT 10SM CLR 07/00 A3010 RMK AO2 SLP179
T00670000 10233 20067 50007





000
SAUS46 KPDT 030457
MTRMEH
METAR KMEH 030456Z AUTO 00000KT 10SM CLR 09/00 A3010 RMK AO2 SLP180
T00940000





000
SAUS46 KPDT 030356
MTRMEH
METAR KMEH 030356Z AUTO 00000KT 10SM CLR 13/M01 A3009 RMK AO2 SLP175
T01281011





000
SAUS46 KPDT 030356
MTRMEH
METAR KMEH 030356Z AUTO 00000KT 10SM CLR 13/M01 A3009 RMK AO2 SLP175
T01281011





000
SAUS46 KPDT 030257
MTRMEH
METAR KMEH 030256Z AUTO 00000KT 10SM CLR 17/M02 A3007 RMK AO2 SLP174
T01671017 55000





000
SAUS46 KPDT 030157
MTRMEH
METAR KMEH 030156Z AUTO 00000KT 10SM CLR 21/M02 A3007 RMK AO2 SLP175
T02061022





000
SAUS46 KPDT 030057
MTRMEH
METAR KMEH 030056Z AUTO 00000KT 10SM CLR 22/M02 A3007 RMK AO2 SLP177
T02221022





000
SAUS46 KPDT 022357
MTRMEH
METAR KMEH 022356Z AUTO VRB03KT 10SM CLR 23/M02 A3008 RMK AO2 SLP177
T02331017 10239 20211 56013





000
SAUS46 KPDT 022357
MTRMEH
METAR KMEH 022356Z AUTO VRB03KT 10SM CLR 23/M02 A3008 RMK AO2 SLP177
T02331017 10239 20211 56013





000
SAUS46 KPDT 022257
MTRMEH
METAR KMEH 022256Z AUTO 00000KT 10SM CLR 24/M01 A3008 RMK AO2 SLP177
T02391006





000
SAUS46 KPDT 022257
MTRMEH
METAR KMEH 022256Z AUTO 00000KT 10SM CLR 24/M01 A3008 RMK AO2 SLP177
T02391006





000
SAUS46 KPDT 022156
MTRMEH
METAR KMEH 022156Z AUTO VRB03KT 10SM FEW085 23/M01 A3010 RMK AO2
SLP184 T02331011





000
SAUS46 KPDT 022057
MTRMEH
METAR KMEH 022056Z AUTO 00000KT 10SM FEW090 24/M01 A3012 RMK AO2
SLP189 T02391006 58009





000
SAUS46 KPDT 022057
MTRMEH
METAR KMEH 022056Z AUTO 00000KT 10SM FEW090 24/M01 A3012 RMK AO2
SLP189 T02391006 58009





000
SAUS46 KPDT 021956
MTRMEH
METAR KMEH 021956Z AUTO 00000KT 10SM SCT090 22/M01 A3013 RMK AO2
SLP194 T02221006





000
SAUS46 KPDT 021856
MTRMEH
METAR KMEH 021856Z AUTO 00000KT 10SM CLR 23/M01 A3014 RMK AO2 SLP196
T02281006





000
SAUS46 KPDT 021756
MTRMEH
METAR KMEH 021756Z AUTO VRB04KT 10SM CLR 22/00 A3015 RMK AO2 SLP198
T02170000 10217 20000 50003





000
SAUS46 KPDT 021756
MTRMEH
METAR KMEH 021756Z AUTO VRB04KT 10SM CLR 22/00 A3015 RMK AO2 SLP198
T02170000 10217 20000 50003





000
SAUS46 KPDT 021657
MTRMEH
METAR KMEH 021656Z AUTO 00000KT 10SM CLR 19/06 A3015 RMK AO2 SLP201
T01890056





000
SAUS46 KPDT 021657
MTRMEH
METAR KMEH 021656Z AUTO 00000KT 10SM CLR 19/06 A3015 RMK AO2 SLP201
T01890056





000
SAUS46 KPDT 021556
MTRMEH
METAR KMEH 021556Z AUTO 00000KT 10SM CLR 17/06 A3015 RMK AO2 SLP199
T01670061





000
SAUS46 KPDT 021556
MTRMEH
METAR KMEH 021556Z AUTO 00000KT 10SM CLR 17/06 A3015 RMK AO2 SLP199
T01670061





000
SAUS46 KPDT 021456
MTRMEH
METAR KMEH 021456Z AUTO 00000KT 10SM CLR 10/06 A3014 RMK AO2 SLP202
T01000056 51008





000
SAUS46 KPDT 021456
MTRMEH
METAR KMEH 021456Z AUTO 00000KT 10SM CLR 10/06 A3014 RMK AO2 SLP202
T01000056 51008





000
SAUS46 KPDT 021357
MTRMEH
METAR KMEH 021356Z AUTO 00000KT 10SM CLR 03/01 A3014 RMK AO2 SLP205
T00280011





000
SAUS46 KPDT 021256
MTRMEH
METAR KMEH 021256Z AUTO 00000KT 10SM CLR 01/M01 A3012 RMK AO2 SLP200
T00061011





000
SAUS46 KPDT 021157
MTRMEH
METAR KMEH 021156Z AUTO 00000KT 10SM CLR 01/M01 A3011 RMK AO2 SLP198
T00061011 10056 20006 52004





000
SAUS46 KPDT 021157
MTRMEH
METAR KMEH 021156Z AUTO 00000KT 10SM CLR 01/M01 A3011 RMK AO2 SLP198
T00061011 10056 20006 52004





000
SAUS46 KPDT 021056
MTRMEH
METAR KMEH 021056Z AUTO 00000KT 10SM CLR 01/M01 A3011 RMK AO2 SLP196
T00111006





000
SAUS46 KPDT 021056
MTRMEH
METAR KMEH 021056Z AUTO 00000KT 10SM CLR 01/M01 A3011 RMK AO2 SLP196
T00111006





000
SAUS46 KPDT 020857
MTRMEH
METAR KMEH 020856Z AUTO 00000KT 10SM CLR 03/01 A3010 RMK AO2 SLP190
T00280011 52002





000
SAUS46 KPDT 020757
MTRMEH
METAR KMEH 020756Z AUTO 00000KT 10SM CLR 03/02 A3010 RMK AO2 SLP190
T00330017 401831017





000
SAUS46 KPDT 020658
MTRMEH
METAR KMEH 020656Z AUTO 00000KT 10SM CLR 04/03 A3009 RMK AO2 SLP188
T00440028





000
SAUS46 KPDT 020658
MTRMEH
METAR KMEH 020656Z AUTO 00000KT 10SM CLR 04/03 A3009 RMK AO2 SLP188
T00440028





000
SAUS46 KPDT 020556
MTRMEH
METAR KMEH 020556Z AUTO 00000KT 10SM CLR 06/04 A3009 RMK AO2 SLP188
T00560039 10178 20056 51007





000
SAUS46 KPDT 020556
MTRMEH
METAR KMEH 020556Z AUTO 00000KT 10SM CLR 06/04 A3009 RMK AO2 SLP188
T00560039 10178 20056 51007





000
SAUS46 KPDT 020356
MTRMEH
METAR KMEH 020356Z AUTO 00000KT 10SM CLR 09/05 A3009 RMK AO2 SLP185
T00940050





000
SAUS46 KPDT 020156
MTRMEH
METAR KMEH 020156Z AUTO 00000KT 10SM CLR 16/06 A3007 RMK AO2 SLP184
T01560061





000
SAUS46 KPDT 012356
MTRMEH
METAR KMEH 012356Z AUTO 00000KT 10SM CLR 17/05 A3008 RMK AO2 SLP189
T01720050 10183 20150 58007





000
SAUS46 KPDT 012356
MTRMEH
METAR KMEH 012356Z AUTO 00000KT 10SM CLR 17/05 A3008 RMK AO2 SLP189
T01720050 10183 20150 58007





000
SAUS46 KPDT 012156
MTRMEH
METAR KMEH 012156Z AUTO VRB05KT 10SM CLR 18/05 A3009 RMK AO2 SLP193
T01780050





000
SAUS46 KPDT 011856
MTRMEH
METAR KMEH 011856Z AUTO 07005KT 10SM CLR 17/02 A3013 RMK AO2 SLP204
T01670017





000
SAUS46 KPDT 011758
MTRMEH
METAR KMEH 011756Z AUTO VRB05KT 10SM CLR 15/02 A3015 RMK AO2 SLP209
I6000 T01500017 10150 21017 58009





000
SAUS46 KPDT 011657
MTRMEH
METAR KMEH 011656Z AUTO VRB04KT 10SM CLR 13/02 A3016 RMK AO2 SLP214
T01330022





000
SAUS46 KPDT 011557
MTRMEH
METAR KMEH 011556Z AUTO 07005KT 10SM CLR 12/03 A3017 RMK AO2 SLP218
T01170033





000
SAUS46 KPDT 011456
MTRMEH
METAR KMEH 011456Z AUTO 00000KT 10SM CLR 06/03 A3018 RMK AO2 SLP223
I3000 T00610028 56000





000
SAUS46 KPDT 011456
MTRMEH
METAR KMEH 011456Z AUTO 00000KT 10SM CLR 06/03 A3018 RMK AO2 SLP223
I3000 T00610028 56000





000
SAUS46 KPDT 011358
MTRMEH
METAR KMEH 011356Z AUTO 00000KT 10SM CLR 01/M01 A3018 RMK AO2 SLP229
T00061011





000
SAUS46 KPDT 011256
MTRMEH
METAR KMEH 011256Z AUTO 00000KT 10SM CLR M02/M03 A3017 RMK AO2
SLP230 I1000 T10171033





000
SAUS46 KPDT 011256
MTRMEH
METAR KMEH 011256Z AUTO 00000KT 10SM CLR M02/M03 A3017 RMK AO2
SLP230 I1000 T10171033





000
SAUS46 KPDT 011058
MTRMEH
METAR KMEH 011056Z AUTO 00000KT 10SM CLR M01/M02 A3018 RMK AO2
SLP233 I1000 T10111022





000
SAUS46 KPDT 010957
MTRMEH
METAR KMEH 010956Z AUTO 00000KT 10SM CLR M01/M02 A3020 RMK AO2
SLP238 T10111022





000
SAUS46 KPDT 010857
MTRMEH
METAR KMEH 010856Z AUTO 00000KT 10SM CLR M01/M02 A3021 RMK AO2
SLP241 T10061017 58007





000
SAUS46 KPDT 010757
MTRMEH
METAR KMEH 010756Z AUTO 00000KT 10SM CLR 00/M01 A3022 RMK AO2 SLP245
T00001011 401170000





000
SAUS46 KPDT 010656
MTRMEH
METAR KMEH 010656Z AUTO 00000KT 10SM CLR 01/M01 A3022 RMK AO2 SLP247
T00111006





000
SAUS46 KPDT 010558
MTRMEH
METAR KMEH 010556Z AUTO 00000KT 10SM CLR 02/01 A3023 RMK AO2 SLP249
T00220006 10117 20022 50005





000
SAUS46 KPDT 010458
MTRMEH
METAR KMEH 010456Z AUTO 00000KT 10SM CLR 04/02 A3023 RMK AO2 SLP251
T00390017





000
SAUS46 KPDT 010458
MTRMEH
METAR KMEH 010456Z AUTO 00000KT 10SM CLR 04/02 A3023 RMK AO2 SLP251
T00390017





000
SAUS46 KPDT 010356
MTRMEH
METAR KMEH 010356Z AUTO 00000KT 10SM CLR 06/03 A3023 RMK AO2 SLP248
T00560033





000
SAUS46 KPDT 010258
MTRMEH
METAR KMEH 010256Z AUTO 00000KT 10SM CLR 09/04 A3021 RMK AO2 SLP238
T00890039 55002





000
SAUS46 KPDT 010156
MTRMEH
METAR KMEH 010156Z AUTO 00000KT 10SM CLR 10/04 A3021 RMK AO2 SLP237
T01000039





    US Dept of Commerce
    National Oceanic and Atmospheric Administration
    National Weather Service
    1325 East West Highway
    Silver Spring, MD 20910
    Page Author: NWS Internet Services Team
Disclaimer
Information Quality
Credits
Glossary
Privacy Policy
Freedom of Information Act (FOIA)
About Us
Career Opportunities